Aérodrome :
LOGIN :

S'inscrire | Disclaimer

   EN    FR    IT 

 










Légende :    VFR   VFR Marginal   IFR   IFR Intensif   IFR Très Intensif
Visi : 
Plafond : 
>= 8 km
>= 3000ft
5 à 8 km
1000 à 3000 ft
1500m à 5 km
500 à 1000 ft
800 à 1500m
200 à 500 ft
< 800m
< 200 ft
Symboles :   Orages  Brouillard  Fortes neiges  Fortes précipitations  Vent > 20 kt
SIGMETs :   Divers  Orages  Givrage  Turbulence  Onde Orograph.  Cendres Volcan.






- Altitude de l'aérodrome : 39 ft
- Code IATA : ANR


EBAW - Anvers / Antwerpen Deurne

DERNIER METAR :
  • 051350Z 22007KT 190V280 9999 FEW034 23/14 Q1007 NOSIG

METARs EXPIRÉS :
  • 051320Z 20005KT 150V240 9999 FEW034TCU 22/13 Q1007 NOSIG
  • 051250Z 14004KT 060V210 9999 FEW034TCU 22/13 Q1007 NOSIG
  • 051220Z 15004KT 110V170 9999 FEW032 21/14 Q1008 NOSIG
  • 051150Z 19006KT 150V220 9999 FEW032 21/14 Q1008 NOSIG
  • 051120Z 19005KT 9999 FEW032TCU 21/14 Q1008 NOSIG

TAF TAF EBAW
Valide du 05 à 12h jusqu'au 05 à 21h UTC


051111Z 0512/0521 17005KT 9999 SCT030



MET'MAP, la Météo Aéronautique d'un coup d'oeil ! - Copyright ORBIFLY Décembre 2007 - Disclaimer

ORBIFLY MET'MAP TEAM :

Programmation & Développement : Alexandra Zaïnal
Sur une idée originale de : Baudouin d'Aumeries
Assistance à la programmation : Marc-Olivier Méhu
Soutien technique & logistique : Manuel Goepfert

Contact : metmap@orbifly.com




SOURCES & CREDITS :

   NOAA